Time;durP1;ratioP1;P1;durP2;ratioP2;P2;SDS_P1;SDS_P2;PMS_P1;PMS_P2;Temp;Humidity;BMP_temperature;BMP_pressure;BME280_temperature;BME280_humidity;BME280_pressure;Samples;Min_cycle;Max_cycle;Signal;HPM_P1;HPM_P2
2023/10/03 00:01:37;;;;;;;8.65;4.07;;;;;;;14.93;100.00;100547.75;5224943;28;20126;-72
2023/10/03 00:04:09;;;;;;;10.60;4.35;;;;;;;14.83;100.00;100543.91;5219176;28;20017;-71
2023/10/03 00:06:41;;;;;;;8.40;4.03;;;;;;;14.92;100.00;100538.16;5214118;28;20443;-72
2023/10/03 00:09:12;;;;;;;10.43;4.28;;;;;;;14.86;100.00;100538.47;5223486;28;20040;-71
2023/10/03 00:11:43;;;;;;;12.35;4.68;;;;;;;14.76;100.00;100535.56;5225176;28;20028;-72
2023/10/03 00:14:13;;;;;;;11.13;4.05;;;;;;;14.80;100.00;100530.03;5222660;28;20047;-72
2023/10/03 00:16:44;;;;;;;10.30;4.35;;;;;;;14.74;100.00;100532.19;5227594;28;20036;-72
2023/10/03 00:19:15;;;;;;;11.73;4.47;;;;;;;14.71;100.00;100522.66;5223961;28;20537;-72
2023/10/03 00:21:45;;;;;;;10.30;4.20;;;;;;;14.69;100.00;100519.25;5222468;28;20162;-72
2023/10/03 00:24:15;;;;;;;8.77;3.92;;;;;;;14.77;100.00;100521.47;5224680;28;20488;-72
2023/10/03 00:26:46;;;;;;;9.88;4.05;;;;;;;14.56;100.00;100509.47;5226870;28;20298;-72
2023/10/03 00:29:23;;;;;;;11.32;4.18;;;;;;;14.56;100.00;100505.06;5230847;28;20033;-72
2023/10/03 00:31:54;;;;;;;9.80;3.72;;;;;;;14.49;100.00;100492.31;5243824;28;20028;-72
2023/10/03 00:34:24;;;;;;;12.13;4.43;;;;;;;14.28;100.00;100493.44;5231856;28;20069;-71
2023/10/03 00:36:54;;;;;;;11.27;4.47;;;;;;;14.27;100.00;100489.09;5230918;28;20020;-72
2023/10/03 00:39:25;;;;;;;12.27;4.10;;;;;;;14.14;100.00;100482.75;5230784;28;20029;-71
2023/10/03 00:41:55;;;;;;;12.07;3.85;;;;;;;14.17;100.00;100485.25;5228605;28;20074;-72
2023/10/03 00:44:26;;;;;;;11.40;3.97;;;;;;;14.19;100.00;100472.88;5220915;28;20430;-72
2023/10/03 00:46:56;;;;;;;12.50;4.30;;;;;;;14.16;100.00;100463.38;5227503;28;20416;-72
2023/10/03 00:49:28;;;;;;;13.63;4.28;;;;;;;14.15;100.00;100463.41;5231233;28;20368;-72
2023/10/03 00:51:59;;;;;;;8.98;4.22;;;;;;;14.18;100.00;100458.03;5227570;28;20021;-72
2023/10/03 00:54:30;;;;;;;8.75;4.15;;;;;;;14.25;100.00;100452.38;5227940;28;20029;-72
2023/10/03 00:57:00;;;;;;;11.45;4.10;;;;;;;14.27;100.00;100453.13;5231803;28;20217;-73
2023/10/03 00:59:33;;;;;;;11.88;4.38;;;;;;;14.21;100.00;100444.72;5228415;28;20025;-72
2023/10/03 01:02:06;;;;;;;12.25;4.50;;;;;;;14.23;100.00;100441.09;5231125;28;20189;-73
2023/10/03 01:04:37;;;;;;;10.63;4.47;;;;;;;14.21;100.00;100427.19;5232153;28;20052;-73
2023/10/03 01:07:07;;;;;;;9.73;4.10;;;;;;;14.25;100.00;100425.25;5229237;28;20063;-73
2023/10/03 01:09:37;;;;;;;11.15;4.13;;;;;;;14.21;100.00;100418.44;5229328;28;20482;-73
2023/10/03 01:12:07;;;;;;;12.68;4.63;;;;;;;14.24;100.00;100410.41;5232624;28;20060;-73
2023/10/03 01:14:39;;;;;;;12.18;4.40;;;;;;;14.27;100.00;100412.88;5231635;28;20584;-73
2023/10/03 01:17:10;;;;;;;13.68;4.47;;;;;;;14.32;100.00;100405.56;5232278;28;20028;-73
2023/10/03 01:19:43;;;;;;;10.80;4.53;;;;;;;14.41;100.00;100400.66;5226675;28;20630;-73
2023/10/03 01:22:14;;;;;;;14.32;4.68;;;;;;;14.44;100.00;100397.88;5232620;28;20016;-73
2023/10/03 01:24:44;;;;;;;13.38;4.50;;;;;;;14.51;100.00;100387.88;5232485;28;20023;-73
2023/10/03 01:27:15;;;;;;;12.13;4.22;;;;;;;14.57;100.00;100374.41;5234474;28;20032;-73
2023/10/03 01:29:45;;;;;;;11.57;4.53;;;;;;;14.56;100.00;100368.28;5224787;28;20128;-73
2023/10/03 01:32:16;;;;;;;10.50;4.47;;;;;;;14.52;100.00;100360.63;5227726;28;20469;-73
2023/10/03 01:34:46;;;;;;;9.55;4.13;;;;;;;14.53;100.00;100359.69;5226635;28;20048;-73
2023/10/03 01:37:16;;;;;;;10.23;4.32;;;;;;;14.52;100.00;100364.13;5228635;28;20463;-73
2023/10/03 01:39:47;;;;;;;10.23;3.85;;;;;;;14.52;100.00;100353.63;5227038;28;20039;-73
2023/10/03 01:42:18;;;;;;;18.08;4.80;;;;;;;14.62;100.00;100351.31;5232571;28;20505;-73
2023/10/03 01:44:50;;;;;;;12.63;4.50;;;;;;;14.63;100.00;100340.69;5226232;28;20475;-73
2023/10/03 01:47:20;;;;;;;14.40;4.53;;;;;;;14.65;100.00;100338.00;5230248;28;20028;-73
2023/10/03 01:49:51;;;;;;;9.82;4.53;;;;;;;14.73;100.00;100341.88;5230293;28;20051;-73
2023/10/03 01:52:21;;;;;;;12.00;4.07;;;;;;;14.80;100.00;100337.13;5230299;28;20119;-73
2023/10/03 01:54:52;;;;;;;14.32;5.03;;;;;;;14.84;100.00;100324.56;5226151;28;20111;-73
2023/10/03 01:57:22;;;;;;;9.73;4.60;;;;;;;14.93;100.00;100317.94;5222340;28;20033;-73
2023/10/03 01:59:52;;;;;;;10.00;4.65;;;;;;;14.93;100.00;100320.56;5226195;28;20027;-73
2023/10/03 02:02:23;;;;;;;11.13;4.50;;;;;;;14.97;100.00;100309.78;5232000;28;20021;-72
2023/10/03 02:04:53;;;;;;;16.50;5.32;;;;;;;15.00;100.00;100309.59;5221370;28;20551;-73
2023/10/03 02:07:27;;;;;;;10.38;4.55;;;;;;;15.01;100.00;100295.50;5226969;28;20020;-73
2023/10/03 02:09:57;;;;;;;12.68;4.97;;;;;;;15.00;100.00;100288.53;5230365;28;20422;-73
2023/10/03 02:12:28;;;;;;;11.75;4.05;;;;;;;14.99;100.00;100291.28;5230985;28;20027;-73
2023/10/03 02:15:07;;;;;;;12.05;5.20;;;;;;;14.99;100.00;100281.56;5229743;28;20535;-73
2023/10/03 02:17:37;;;;;;;13.60;4.40;;;;;;;15.06;100.00;100276.81;5229507;28;20028;-73
2023/10/03 02:20:16;;;;;;;12.98;5.10;;;;;;;15.12;100.00;100272.03;5231463;28;20389;-73
2023/10/03 02:22:53;;;;;;;13.50;4.57;;;;;;;15.05;100.00;100272.47;5227587;28;20394;-73
2023/10/03 02:25:25;;;;;;;11.77;4.68;;;;;;;15.08;100.00;100265.25;5215705;28;20472;-73
2023/10/03 02:27:56;;;;;;;12.38;4.70;;;;;;;15.10;100.00;100260.75;5224293;28;20052;-73
2023/10/03 02:30:27;;;;;;;10.95;4.72;;;;;;;15.15;100.00;100258.69;5214484;28;20025;-73
2023/10/03 02:33:04;;;;;;;11.80;4.47;;;;;;;15.17;100.00;100248.09;5225408;28;20052;-73
2023/10/03 02:35:38;;;;;;;11.48;5.07;;;;;;;15.17;100.00;100248.91;5223415;28;20253;-72
2023/10/03 02:38:12;;;;;;;12.55;4.88;;;;;;;15.17;100.00;100233.13;5227739;28;20028;-73
2023/10/03 02:40:43;;;;;;;12.93;4.65;;;;;;;15.19;100.00;100236.50;5224656;28;20025;-73
2023/10/03 02:43:13;;;;;;;11.10;4.38;;;;;;;15.17;100.00;100227.84;5227360;28;20024;-73
2023/10/03 02:45:43;;;;;;;13.23;4.57;;;;;;;15.06;100.00;100217.13;5228446;28;20029;-73
2023/10/03 02:48:14;;;;;;;11.60;4.20;;;;;;;15.07;100.00;100221.47;5230138;28;20471;-74
2023/10/03 02:50:46;;;;;;;11.55;4.35;;;;;;;15.11;100.00;100212.44;5225339;28;20059;-73
2023/10/03 02:53:19;;;;;;;11.65;4.25;;;;;;;15.10;100.00;100204.59;5230341;28;20401;-73
2023/10/03 02:55:51;;;;;;;11.93;4.63;;;;;;;15.11;100.00;100201.03;5226495;28;20600;-73
2023/10/03 02:58:22;;;;;;;12.50;4.88;;;;;;;15.05;100.00;100189.09;5229488;28;20474;-73
2023/10/03 03:00:54;;;;;;;10.35;4.60;;;;;;;15.08;100.00;100180.16;5226577;28;20029;-73
2023/10/03 03:03:32;;;;;;;12.98;4.80;;;;;;;15.03;100.00;100172.53;5230296;28;20029;-72
2023/10/03 03:06:10;;;;;;;10.95;4.32;;;;;;;15.04;100.00;100163.72;5226404;28;20021;-73
2023/10/03 03:08:44;;;;;;;10.88;4.43;;;;;;;14.96;100.00;100154.56;5227297;28;20025;-73
2023/10/03 03:11:14;;;;;;;10.77;4.88;;;;;;;14.90;100.00;100145.28;5230295;28;20600;-73
2023/10/03 03:13:44;;;;;;;12.85;4.82;;;;;;;14.92;100.00;100148.66;5229168;28;20111;-73
2023/10/03 03:16:15;;;;;;;10.13;4.40;;;;;;;14.90;100.00;100140.03;5228494;28;20032;-73
2023/10/03 03:18:49;;;;;;;12.60;4.53;;;;;;;14.86;100.00;100137.66;5229499;28;20021;-73
2023/10/03 03:21:21;;;;;;;11.40;4.47;;;;;;;14.85;100.00;100136.81;5225096;28;20103;-73
2023/10/03 03:24:00;;;;;;;10.60;4.70;;;;;;;14.95;100.00;100140.59;5226921;28;20485;-73
2023/10/03 03:26:36;;;;;;;12.80;5.05;;;;;;;15.01;100.00;100137.56;5229706;28;20047;-72
2023/10/03 03:29:30;;;;;;;11.95;5.07;;;;;;;15.08;100.00;100117.84;5231817;28;20029;-73
2023/10/03 03:32:01;;;;;;;12.30;5.07;;;;;;;15.16;100.00;100128.75;5225489;28;20032;-73
2023/10/03 03:34:31;;;;;;;10.50;4.28;;;;;;;15.23;100.00;100121.31;5229278;28;20507;-73
2023/10/03 03:37:20;;;;;;;12.98;4.70;;;;;;;15.26;100.00;100132.53;5230329;28;20444;-73
2023/10/03 03:39:53;;;;;;;12.65;4.68;;;;;;;15.37;100.00;100131.91;5227873;28;23234;-73
2023/10/03 03:42:25;;;;;;;16.10;5.75;;;;;;;15.39;100.00;100112.41;5231349;28;20021;-73
2023/10/03 03:44:55;;;;;;;15.25;5.50;;;;;;;15.46;100.00;100107.59;5227395;28;20039;-73
2023/10/03 03:47:25;;;;;;;13.90;5.47;;;;;;;15.57;100.00;100092.81;5229176;28;20024;-73
2023/10/03 03:49:56;;;;;;;12.43;4.97;;;;;;;15.63;100.00;100100.34;5231085;28;20539;-74
2023/10/03 03:52:27;;;;;;;18.90;6.07;;;;;;;15.59;100.00;100090.94;5228747;28;20016;-73
2023/10/03 03:55:03;;;;;;;12.25;5.45;;;;;;;15.67;100.00;100085.19;5227235;28;20029;-73
2023/10/03 03:57:34;;;;;;;13.18;5.60;;;;;;;15.61;100.00;100070.63;5224560;28;20568;-73
2023/10/03 04:00:21;;;;;;;16.27;5.60;;;;;;;15.62;100.00;100059.13;5230133;28;20127;-73
2023/10/03 04:02:52;;;;;;;13.23;5.18;;;;;;;15.46;100.00;100055.78;5219714;28;20023;-73
2023/10/03 04:05:23;;;;;;;14.48;5.82;;;;;;;15.42;100.00;100059.56;5231048;28;20473;-73
2023/10/03 04:07:54;;;;;;;15.90;5.85;;;;;;;15.38;100.00;100055.41;5230354;28;20024;-73
2023/10/03 04:10:26;;;;;;;17.05;5.63;;;;;;;15.29;100.00;100042.84;5230185;28;20517;-73
2023/10/03 04:12:56;;;;;;;12.07;5.20;;;;;;;15.21;100.00;100034.53;5231092;28;20037;-73
2023/10/03 04:15:27;;;;;;;19.65;6.25;;;;;;;15.15;100.00;100034.09;5229230;28;20109;-73
2023/10/03 04:17:58;;;;;;;13.90;5.50;;;;;;;15.11;100.00;100043.97;5229612;28;20067;-73
2023/10/03 04:20:31;;;;;;;13.20;5.63;;;;;;;15.16;100.00;100049.78;5223766;28;20029;-73
2023/10/03 04:23:03;;;;;;;16.58;6.05;;;;;;;15.20;100.00;100034.66;5231150;28;20039;-73
2023/10/03 04:25:34;;;;;;;16.90;6.13;;;;;;;15.22;100.00;100044.13;5228952;28;20029;-73
2023/10/03 04:28:05;;;;;;;17.23;6.47;;;;;;;15.27;100.00;100039.44;5228921;28;20016;-73
2023/10/03 04:30:37;;;;;;;18.88;6.70;;;;;;;15.37;100.00;100040.56;5227540;28;20256;-73
2023/10/03 04:33:07;;;;;;;18.02;6.53;;;;;;;15.44;100.00;100038.38;5231750;28;20033;-73
2023/10/03 04:35:38;;;;;;;19.88;7.22;;;;;;;15.44;100.00;100025.22;5231824;28;20035;-73
2023/10/03 04:38:08;;;;;;;21.75;6.70;;;;;;;15.51;100.00;100024.72;5228646;28;20033;-73
2023/10/03 04:40:38;;;;;;;18.15;6.53;;;;;;;15.53;100.00;100032.53;5226056;28;20036;-73
2023/10/03 04:43:12;;;;;;;20.58;7.07;;;;;;;15.55;100.00;100034.09;5227017;28;20021;-73
2023/10/03 04:45:44;;;;;;;17.33;6.10;;;;;;;15.62;100.00;100037.19;5226476;28;20036;-73
2023/10/03 04:48:14;;;;;;;18.13;6.13;;;;;;;15.64;100.00;100025.63;5225855;28;20024;-73
2023/10/03 04:50:45;;;;;;;17.00;6.75;;;;;;;15.58;100.00;100019.91;5224867;28;20028;-73
2023/10/03 04:53:15;;;;;;;20.38;6.85;;;;;;;15.55;100.00;99999.88;5222008;28;20029;-73
2023/10/03 04:55:48;;;;;;;21.48;6.82;;;;;;;15.53;100.00;99987.75;5227289;28;20081;-73
2023/10/03 04:58:18;;;;;;;19.38;6.88;;;;;;;15.59;100.00;99993.47;5220616;28;20024;-73
2023/10/03 05:00:48;;;;;;;18.42;6.53;;;;;;;15.64;100.00;99979.97;5226113;28;20020;-73
2023/10/03 05:03:19;;;;;;;16.92;6.50;;;;;;;15.71;100.00;99971.56;5224208;28;20021;-73
2023/10/03 05:05:49;;;;;;;16.52;6.30;;;;;;;15.67;100.00;99980.63;5224331;28;20016;-73
2023/10/03 05:08:20;;;;;;;17.70;6.18;;;;;;;15.74;100.00;99966.09;5230096;28;20078;-73
2023/10/03 05:10:54;;;;;;;20.38;6.53;;;;;;;15.70;100.00;99982.22;5227537;28;20036;-73
2023/10/03 05:13:24;;;;;;;20.65;7.38;;;;;;;15.64;100.00;99975.56;5227467;28;20024;-73
2023/10/03 05:15:54;;;;;;;18.73;6.97;;;;;;;15.63;100.00;99965.97;5228969;28;20025;-73
2023/10/03 05:18:25;;;;;;;17.20;6.25;;;;;;;15.62;100.00;99956.41;5229128;28;20021;-73
2023/10/03 05:20:56;;;;;;;18.35;6.40;;;;;;;15.66;100.00;99957.00;5224455;28;20139;-73
2023/10/03 05:23:27;;;;;;;17.38;6.38;;;;;;;15.64;100.00;99953.63;5227352;28;20025;-73
2023/10/03 05:25:57;;;;;;;24.52;7.25;;;;;;;15.64;100.00;99943.97;5244051;28;20111;-73
2023/10/03 05:28:28;;;;;;;19.17;7.15;;;;;;;15.62;100.00;99951.13;5233223;28;20020;-73
2023/10/03 05:30:58;;;;;;;20.02;7.40;;;;;;;15.66;100.00;99942.06;5229964;28;20428;-72
2023/10/03 05:33:29;;;;;;;19.92;7.22;;;;;;;15.67;100.00;99945.56;5233660;28;20111;-73
2023/10/03 05:36:00;;;;;;;19.73;6.93;;;;;;;15.74;100.00;99937.13;5230372;28;20478;-73
2023/10/03 05:38:31;;;;;;;15.50;6.78;;;;;;;15.76;100.00;99932.63;5231657;28;20104;-73
2023/10/03 05:41:02;;;;;;;18.23;7.28;;;;;;;15.79;100.00;99937.69;5232105;28;20115;-73
2023/10/03 05:43:33;;;;;;;17.33;6.55;;;;;;;15.82;100.00;99937.47;5233604;28;20028;-72
2023/10/03 05:46:04;;;;;;;19.60;6.47;;;;;;;15.87;100.00;99935.34;5230675;28;20254;-73
2023/10/03 05:48:34;;;;;;;19.60;7.50;;;;;;;15.91;100.00;99943.91;5229286;28;20024;-73
2023/10/03 05:51:05;;;;;;;22.05;7.53;;;;;;;16.01;100.00;99924.72;5228570;28;20394;-73
2023/10/03 05:53:36;;;;;;;21.17;7.03;;;;;;;16.01;100.00;99924.72;5231811;28;20055;-73
2023/10/03 05:56:06;;;;;;;22.13;7.43;;;;;;;16.05;100.00;99934.13;5246182;28;20083;-73
2023/10/03 05:58:37;;;;;;;19.95;7.35;;;;;;;16.11;100.00;99923.16;5233499;28;20145;-73
2023/10/03 06:01:07;;;;;;;21.83;8.35;;;;;;;16.15;100.00;99929.91;5233408;28;20036;-72
2023/10/03 06:03:38;;;;;;;23.05;7.47;;;;;;;16.21;100.00;99934.75;5227382;28;20040;-73
2023/10/03 06:06:08;;;;;;;20.90;7.97;;;;;;;16.24;100.00;99934.53;5232371;28;20119;-73
2023/10/03 06:08:39;;;;;;;20.85;7.82;;;;;;;16.28;100.00;99940.47;5235849;28;20029;-73
2023/10/03 06:11:10;;;;;;;19.13;7.25;;;;;;;16.32;100.00;99941.94;5235314;28;20039;-73
2023/10/03 06:13:44;;;;;;;20.30;7.40;;;;;;;16.36;100.00;99954.84;5244055;28;20029;-73
2023/10/03 06:16:17;;;;;;;21.40;7.25;;;;;;;16.54;100.00;99943.00;5230652;28;20486;-73
2023/10/03 06:18:47;;;;;;;18.80;7.30;;;;;;;16.58;100.00;99928.66;5231551;28;20375;-72
2023/10/03 06:21:18;;;;;;;20.58;7.28;;;;;;;16.61;100.00;99936.38;5237471;28;20028;-73
2023/10/03 06:23:52;;;;;;;18.35;6.50;;;;;;;16.72;100.00;99931.16;5246609;28;20020;-72
2023/10/03 06:26:22;;;;;;;21.80;8.00;;;;;;;16.77;100.00;99939.63;5237646;28;20079;-73
2023/10/03 06:28:52;;;;;;;23.35;8.35;;;;;;;16.78;100.00;99936.03;5230652;28;20123;-73
2023/10/03 06:31:23;;;;;;;22.33;7.68;;;;;;;16.82;100.00;99937.47;5235184;28;20024;-73
2023/10/03 06:33:53;;;;;;;18.80;7.43;;;;;;;16.87;100.00;99949.41;5236373;28;20016;-73
2023/10/03 06:36:23;;;;;;;21.60;7.85;;;;;;;16.93;100.00;99946.31;5237855;28;20023;-73
2023/10/03 06:38:54;;;;;;;22.88;8.15;;;;;;;16.97;100.00;99944.31;5230553;28;20103;-73
2023/10/03 06:41:26;;;;;;;25.45;8.02;;;;;;;17.08;100.00;99945.22;5230656;28;20466;-73
2023/10/03 06:43:56;;;;;;;18.35;6.85;;;;;;;17.17;100.00;99944.56;5227167;28;20540;-73
2023/10/03 06:46:26;;;;;;;21.08;7.95;;;;;;;17.25;100.00;99952.78;5230098;28;20025;-72
2023/10/03 06:48:57;;;;;;;20.35;7.72;;;;;;;17.34;100.00;99952.13;5235494;28;20166;-73
2023/10/03 06:51:27;;;;;;;21.75;8.32;;;;;;;17.50;100.00;99954.50;5237742;28;20035;-73
2023/10/03 06:53:58;;;;;;;21.60;7.55;;;;;;;17.58;100.00;99950.34;5234529;28;20059;-73
2023/10/03 06:56:32;;;;;;;20.10;7.32;;;;;;;17.67;100.00;99946.16;5226664;28;20550;-73
2023/10/03 06:59:04;;;;;;;22.70;7.95;;;;;;;17.76;100.00;99953.41;5230558;28;20043;-74
2023/10/03 07:01:35;;;;;;;20.70;7.72;;;;;;;17.85;100.00;99958.00;5216712;28;20017;-73
2023/10/03 07:04:08;;;;;;;19.45;7.03;;;;;;;17.99;100.00;99955.19;5230425;28;20542;-73
2023/10/03 07:06:39;;;;;;;21.77;8.45;;;;;;;18.31;100.00;99956.25;5232307;28;20090;-73
2023/10/03 07:09:10;;;;;;;20.30;7.57;;;;;;;18.58;100.00;99965.53;5232407;28;20028;-73
2023/10/03 07:11:41;;;;;;;23.58;7.93;;;;;;;18.73;100.00;99971.44;5225117;28;20451;-73
2023/10/03 07:14:12;;;;;;;20.02;7.47;;;;;;;18.78;100.00;99970.13;5220104;28;20033;-73
2023/10/03 07:16:46;;;;;;;21.77;7.70;;;;;;;18.99;100.00;99965.75;5225354;28;20033;-73
2023/10/03 07:19:17;;;;;;;18.00;7.20;;;;;;;19.16;100.00;99963.50;5223319;28;20029;-73
2023/10/03 07:21:47;;;;;;;21.92;7.82;;;;;;;19.23;100.00;99959.38;5225059;28;20020;-74
2023/10/03 07:24:18;;;;;;;20.00;7.55;;;;;;;19.22;100.00;99943.59;5222882;28;20120;-73
2023/10/03 07:26:48;;;;;;;26.58;7.47;;;;;;;19.28;100.00;99948.41;5222048;28;20102;-73
2023/10/03 07:29:19;;;;;;;20.00;7.38;;;;;;;19.37;100.00;99940.56;5220517;28;20017;-74
2023/10/03 07:31:49;;;;;;;20.75;7.63;;;;;;;19.68;97.10;99947.69;5217182;28;20025;-73
2023/10/03 07:34:21;;;;;;;19.40;7.35;;;;;;;19.66;96.80;99952.28;5216701;28;20498;-73
2023/10/03 07:36:51;;;;;;;21.23;7.85;;;;;;;19.77;96.78;99968.13;5225395;28;20028;-73
2023/10/03 07:39:21;;;;;;;18.90;7.40;;;;;;;19.80;94.41;99965.22;5215480;28;20024;-74
2023/10/03 07:41:52;;;;;;;27.25;8.13;;;;;;;19.92;94.63;99969.50;5222933;28;20297;-73
2023/10/03 07:44:25;;;;;;;18.55;7.45;;;;;;;20.02;93.58;99973.13;5221370;28;20458;-73
2023/10/03 07:46:56;;;;;;;25.85;7.93;;;;;;;20.13;91.83;99962.44;5222146;28;20116;-73
2023/10/03 07:49:28;;;;;;;19.30;7.20;;;;;;;20.23;92.47;99965.16;5224513;28;20303;-73
2023/10/03 07:52:04;;;;;;;18.52;7.20;;;;;;;20.24;91.25;99966.81;5225207;28;20025;-73
2023/10/03 07:54:37;;;;;;;19.42;7.43;;;;;;;20.34;90.83;99965.94;5217696;28;20033;-74
2023/10/03 07:57:08;;;;;;;21.77;7.80;;;;;;;20.43;89.26;99975.75;5222577;28;20028;-73
2023/10/03 07:59:39;;;;;;;20.58;7.40;;;;;;;20.47;89.62;99958.59;5224617;28;20118;-73
2023/10/03 08:02:10;;;;;;;17.42;6.53;;;;;;;20.46;89.58;99956.91;5220711;28;20487;-73
2023/10/03 08:04:42;;;;;;;18.45;7.35;;;;;;;20.45;89.94;99968.50;5220337;28;20033;-73
2023/10/03 08:07:21;;;;;;;19.27;7.45;;;;;;;20.55;88.18;99973.88;5222295;28;20029;-73
2023/10/03 08:09:52;;;;;;;16.85;6.60;;;;;;;20.62;89.45;99965.25;5226142;28;20187;-73
2023/10/03 08:12:25;;;;;;;18.65;6.97;;;;;;;20.71;87.70;99977.75;5219865;28;20436;-73
2023/10/03 08:14:55;;;;;;;15.85;6.97;;;;;;;20.72;87.88;99972.28;5217932;28;20508;-73
2023/10/03 08:17:31;;;;;;;19.00;6.95;;;;;;;20.76;87.67;99979.00;5219262;28;20033;-73
2023/10/03 08:20:05;;;;;;;18.75;6.90;;;;;;;20.84;87.32;99973.06;5225198;28;20025;-73
2023/10/03 08:22:41;;;;;;;17.23;6.90;;;;;;;20.89;88.29;99986.81;5220296;28;20021;-73
2023/10/03 08:25:11;;;;;;;15.60;6.97;;;;;;;20.97;87.40;99993.13;5221369;28;20032;-73
2023/10/03 08:27:46;;;;;;;19.05;7.40;;;;;;;20.98;88.41;99993.94;5224042;28;20525;-73
2023/10/03 08:30:30;;;;;;;19.48;7.32;;;;;;;21.07;89.52;99982.53;5214814;28;20025;-74
2023/10/03 08:33:04;;;;;;;16.90;6.65;;;;;;;21.09;87.59;99991.22;5222561;28;20052;-74
2023/10/03 08:35:35;;;;;;;20.33;6.90;;;;;;;21.18;88.17;99985.94;5219170;28;20021;-73
2023/10/03 08:38:07;;;;;;;22.52;7.35;;;;;;;21.10;87.14;99975.13;5218558;28;20040;-73
2023/10/03 08:40:42;;;;;;;16.50;6.97;;;;;;;20.99;87.83;99985.00;5221916;28;20525;-73
2023/10/03 08:43:12;;;;;;;22.75;7.72;;;;;;;20.99;87.35;99985.88;5221540;28;20028;-73
2023/10/03 08:45:52;;;;;;;18.83;6.90;;;;;;;20.95;88.43;99975.63;5219027;28;20348;-73
2023/10/03 08:48:27;;;;;;;16.05;6.68;;;;;;;20.98;87.46;99988.63;5219730;28;20024;-73
2023/10/03 08:50:58;;;;;;;16.50;6.35;;;;;;;20.93;88.54;99975.75;5222118;28;20028;-73
2023/10/03 08:53:29;;;;;;;21.77;6.88;;;;;;;20.89;88.50;99970.88;5218636;28;20196;-73
2023/10/03 08:56:01;;;;;;;19.65;7.05;;;;;;;20.99;87.30;99985.00;5219276;28;20025;-73
2023/10/03 08:58:32;;;;;;;18.02;6.70;;;;;;;20.90;88.68;99991.97;5216192;28;20067;-73
2023/10/03 09:01:02;;;;;;;17.63;6.30;;;;;;;21.02;88.33;99995.38;5221063;28;21615;-73
2023/10/03 09:03:46;;;;;;;17.90;6.00;;;;;;;20.99;88.91;99990.31;5222711;28;20033;-73
2023/10/03 09:06:22;;;;;;;16.35;6.47;;;;;;;20.98;89.41;99985.97;5216427;28;20115;-74
2023/10/03 09:09:09;;;;;;;18.88;6.70;;;;;;;20.90;89.63;100007.91;5222992;28;20094;-73
2023/10/03 09:11:42;;;;;;;16.67;6.72;;;;;;;21.00;89.04;100015.91;5216094;28;20028;-73
2023/10/03 09:14:19;;;;;;;17.70;6.57;;;;;;;20.96;89.74;100011.84;5220622;28;20076;-73
2023/10/03 09:16:54;;;;;;;24.08;6.85;;;;;;;21.09;88.53;100009.81;5219764;28;20112;-73
2023/10/03 09:19:43;;;;;;;14.48;6.72;;;;;;;21.16;88.15;100013.59;5221219;28;20033;-72
2023/10/03 09:22:30;;;;;;;19.27;7.07;;;;;;;21.24;87.61;100022.59;5222252;28;20061;-73
2023/10/03 09:25:01;;;;;;;16.10;6.25;;;;;;;21.32;88.16;100022.78;5219396;28;20524;-73
2023/10/03 09:27:31;;;;;;;12.88;6.28;;;;;;;21.37;87.80;100007.25;5225198;28;20028;-73
2023/10/03 09:30:08;;;;;;;18.83;6.60;;;;;;;21.40;85.95;100016.78;5222760;28;20025;-73
2023/10/03 09:32:39;;;;;;;16.38;6.35;;;;;;;21.40;86.06;100022.09;5223350;28;20017;-73
2023/10/03 09:35:10;;;;;;;20.80;6.95;;;;;;;21.32;86.91;100027.22;5220392;28;20037;-73
2023/10/03 09:37:48;;;;;;;18.45;6.60;;;;;;;21.39;86.73;100031.06;5224715;28;20478;-73
2023/10/03 09:40:18;;;;;;;18.73;7.32;;;;;;;21.36;86.68;100025.97;5212237;28;20041;-74
2023/10/03 09:42:49;;;;;;;15.77;6.53;;;;;;;21.43;86.55;100019.97;5228768;28;20029;-73
2023/10/03 09:45:24;;;;;;;19.20;6.57;;;;;;;21.48;87.22;100030.22;5224618;28;20120;-73
2023/10/03 09:48:05;;;;;;;14.07;6.38;;;;;;;21.53;86.55;100027.97;5228903;28;20187;-73
2023/10/03 09:50:36;;;;;;;14.35;6.28;;;;;;;21.66;86.33;100028.59;5218802;28;20312;-73
2023/10/03 09:53:15;;;;;;;17.67;6.07;;;;;;;21.65;85.43;100035.78;5218814;28;20033;-73
2023/10/03 09:55:49;;;;;;;16.85;6.22;;;;;;;21.67;86.52;100046.25;5224873;28;20040;-73
2023/10/03 09:58:24;;;;;;;16.55;6.53;;;;;;;21.55;86.61;100037.53;5231061;28;20086;-74
2023/10/03 10:00:55;;;;;;;15.10;6.18;;;;;;;21.48;86.86;100047.03;5218716;28;20127;-73
2023/10/03 10:03:48;;;;;;;18.30;6.57;;;;;;;21.47;87.53;100040.03;5227001;28;20495;-73
2023/10/03 10:06:37;;;;;;;17.85;6.50;;;;;;;21.65;87.40;100038.44;5223619;28;20345;-73
2023/10/03 10:09:23;;;;;;;16.63;6.50;;;;;;;21.72;85.96;100044.03;5221070;28;20031;-73
2023/10/03 10:12:12;;;;;;;14.88;6.32;;;;;;;21.93;85.98;100048.25;5230388;28;20024;-73
2023/10/03 10:15:00;;;;;;;15.60;7.47;;;;;;;22.00;85.60;100053.88;5221937;28;20089;-73
2023/10/03 10:17:55;;;;;;;18.15;7.55;;;;;;;22.01;85.56;100055.53;5225178;28;20032;-73
2023/10/03 10:20:27;;;;;;;15.40;7.22;;;;;;;21.99;85.45;100052.19;5217102;28;20068;-73
2023/10/03 10:23:16;;;;;;;15.90;6.90;;;;;;;22.16;86.13;100041.69;5229720;28;20401;-74
2023/10/03 10:25:55;;;;;;;16.92;7.13;;;;;;;22.08;85.62;100062.00;5228071;28;20058;-73
2023/10/03 10:28:34;;;;;;;20.23;7.28;;;;;;;22.10;85.82;100054.72;5223581;28;20538;-73
2023/10/03 10:31:34;;;;;;;16.23;6.78;;;;;;;22.08;86.41;100062.84;5213578;28;20036;-73
2023/10/03 10:34:16;;;;;;;20.15;7.85;;;;;;;22.06;86.77;100061.31;5223153;28;21238;-73
2023/10/03 10:37:01;;;;;;;21.25;7.93;;;;;;;22.26;87.05;100060.34;5228038;28;20079;-73
2023/10/03 10:39:53;;;;;;;22.88;8.15;;;;;;;22.22;86.71;100045.63;5214898;28;20035;-74
2023/10/03 10:42:29;;;;;;;18.88;7.20;;;;;;;22.23;86.46;100047.31;5226326;28;20087;-72
2023/10/03 10:45:15;;;;;;;21.75;8.18;;;;;;;22.10;86.94;100050.22;5224028;28;20116;-73
2023/10/03 10:47:48;;;;;;;17.48;7.30;;;;;;;22.14;87.92;100054.31;5226219;28;20316;-73
2023/10/03 10:50:21;;;;;;;17.45;6.97;;;;;;;22.38;87.96;100060.06;5208461;28;20029;-73
2023/10/03 10:53:02;;;;;;;18.42;7.15;;;;;;;22.64;86.30;100061.19;5243963;28;20472;-73
2023/10/03 10:55:33;;;;;;;14.82;6.60;;;;;;;22.82;85.72;100054.94;5224910;28;20078;-73
2023/10/03 10:58:08;;;;;;;15.98;6.15;;;;;;;22.90;86.14;100044.41;5230050;28;20568;-73
2023/10/03 11:00:40;;;;;;;13.20;5.75;;;;;;;23.02;84.69;100053.91;5228271;28;20032;-73
2023/10/03 11:03:11;;;;;;;12.40;5.53;;;;;;;23.01;84.02;100054.88;5220472;28;20028;-73
2023/10/03 11:05:42;;;;;;;18.20;6.25;;;;;;;22.99;84.90;100056.84;5224929;28;20090;-73
2023/10/03 11:08:13;;;;;;;15.02;6.03;;;;;;;23.06;84.48;100051.78;5227158;28;20044;-73
2023/10/03 11:10:56;;;;;;;13.63;5.47;;;;;;;23.03;84.87;100060.91;5241268;28;21169;-73
2023/10/03 11:13:27;;;;;;;12.75;5.30;;;;;;;22.81;85.79;100061.25;5225930;28;20072;-73
2023/10/03 11:16:00;;;;;;;11.23;4.70;;;;;;;22.80;84.53;100070.25;5215356;28;20021;-74
2023/10/03 11:18:32;;;;;;;12.00;4.93;;;;;;;22.76;84.65;100063.53;5226703;28;20502;-73
2023/10/03 11:21:03;;;;;;;9.95;4.10;;;;;;;22.80;84.90;100080.91;5223518;28;20051;-73
2023/10/03 11:23:34;;;;;;;10.13;4.28;;;;;;;22.79;85.14;100076.56;5215099;28;20044;-73
2023/10/03 11:26:05;;;;;;;9.38;4.25;;;;;;;22.71;86.13;100089.75;5241708;28;20040;-73
2023/10/03 11:28:51;;;;;;;10.20;3.65;;;;;;;22.50;86.72;100090.91;5227422;28;20037;-73
2023/10/03 11:31:22;;;;;;;9.20;3.45;;;;;;;22.44;85.33;100086.13;5220940;28;20115;-73
2023/10/03 11:33:59;;;;;;;7.47;3.15;;;;;;;22.44;85.94;100090.63;5211126;28;20047;-73
2023/10/03 11:36:43;;;;;;;9.60;3.05;;;;;;;22.49;85.32;100077.72;5223245;28;20680;-73
2023/10/03 11:39:22;;;;;;;8.35;3.25;;;;;;;22.51;85.75;100073.09;5225938;28;20045;-74
2023/10/03 11:41:52;;;;;;;8.25;3.03;;;;;;;22.42;86.00;100072.13;5212056;28;20021;-73